CDT,Max TemperatureF,Mean TemperatureF,Min TemperatureF,Max Dew PointF,MeanDew PointF,Min DewpointF,Max Humidity, Mean Humidity, Min Humidity, Max Sea Level PressureIn, Mean Sea Level PressureIn, Min Sea Level PressureIn, Max VisibilityMiles, Mean VisibilityMiles, Min VisibilityMiles, Max Wind SpeedMPH, Mean Wind SpeedMPH, Max Gust SpeedMPH,PrecipitationIn, CloudCover, Events, WindDirDegrees
2013-3-1,30,19,5,23,17,3,92,73,51,30.28,30.21,30.11,10,10,5,13,9,,0.00,3,Snow,16
2013-3-2,26,16,5,16,9,1,92,78,59,30.28,30.23,30.16,10,10,7,9,0,,0.00,0,,330
2013-3-3,30,16,1,16,11,-4,92,69,47,30.16,30.07,29.99,10,10,7,16,2,,0.00,1,,124
2013-3-4,32,28,23,27,23,14,93,80,59,30.01,29.93,29.87,10,7,1,25,17,36,0.00,3,Snow,108
2013-3-5,32,26,21,27,25,18,100,87,75,30.19,29.99,29.91,10,6,0,17,8,21,0.21,4,Snow,349
2013-3-6,28,18,8,21,17,5,100,81,69,30.36,30.31,30.19,10,9,1,18,11,25,0.00,1,,333
2013-3-7,28,16,5,21,14,1,93,84,74,30.38,30.34,30.32,10,7,2,14,3,,0.01,0,,123
2013-3-8,35,28,21,32,26,18,93,86,80,30.34,30.27,30.12,10,7,5,22,14,28,0.00,0,,130
2013-3-9,37,35,33,36,34,32,100,97,93,30.11,29.87,29.71,7,2,0,23,17,30,0.74,7,Fog-Rain,143
2013-3-10,37,35,33,36,35,32,100,99,93,29.76,29.69,29.60,10,4,0,25,9,32,0.71,8,Fog-Rain-Snow,26
2013-3-11,33,30,26,32,29,21,100,90,80,29.86,29.71,29.63,10,8,2,22,15,28,0.02,6,Snow,325
2013-3-12,32,28,23,28,22,18,93,79,64,30.13,29.96,29.86,10,8,1,28,14,32,0.00,2,Snow,285
2013-3-13,30,24,19,19,16,12,86,73,55,30.37,30.30,30.13,10,10,10,20,13,23,0.00,0,,307
2013-3-14,39,31,23,32,27,19,100,84,74,30.31,30.14,30.03,10,9,1,21,4,24,0.00,1,Snow,130
2013-3-15,39,36,32,34,32,30,100,91,81,30.02,29.86,29.73,7,5,2,18,3,22,0.00,1,,74
2013-3-16,33,30,26,34,26,18,100,84,64,30.18,29.99,29.77,10,8,0,22,9,31,0.00,4,Fog-Snow,337
2013-3-17,33,26,19,27,20,12,80,73,63,30.18,30.07,29.89,10,10,10,22,14,28,0.00,1,,87
2013-3-18,32,24,17,32,23,10,100,84,68,29.88,29.75,29.64,10,4,0,33,16,39,0.05,5,Snow,219
2013-3-19,28,20,12,18,11,5,79,67,55,30.16,30.04,29.85,10,10,10,26,22,34,0.00,1,,288
2013-3-20,23,16,10,10,7,3,79,66,54,30.19,30.15,30.09,10,10,10,29,21,36,0.00,0,,307
2013-3-21,28,18,8,14,9,3,79,67,50,30.10,30.05,30.01,10,10,10,10,5,,0.00,0,,352
2013-3-22,32,24,15,23,16,10,80,65,51,30.06,30.04,30.01,10,10,10,7,1,,0.00,0,,14
2013-3-23,37,30,24,27,22,19,86,70,52,30.12,30.07,30.01,10,10,10,12,5,,0.00,0,,9
2013-3-24,32,31,30,30,28,25,93,87,75,30.03,29.91,29.84,10,6,1,16,10,22,0.00,4,Rain-Snow,15
2013-3-25,33,30,26,28,25,19,93,78,74,30.17,30.03,29.89,10,10,10,20,14,25,0.00,0,,342
2013-3-26,37,32,26,30,25,21,93,77,52,30.29,30.24,30.18,10,10,10,16,9,18,0.00,1,,317
2013-3-27,42,35,28,28,26,21,100,75,52,30.34,30.31,30.28,10,10,7,5,1,,0.00,0,,50
2013-3-28,46,37,28,34,28,23,87,70,53,30.34,30.30,30.26,10,10,10,7,2,,0.00,1,,72
2013-3-29,53,42,32,37,32,27,87,69,47,30.30,30.24,30.16,10,10,10,9,3,,0.00,0,,97
2013-3-30,48,42,35,46,39,32,100,89,76,30.16,29.97,29.86,10,5,0,18,10,29,0.03,4,Fog-Rain,171
2013-3-31,44,38,30,37,31,21,100,83,61,30.03,29.88,29.84,10,6,0,26,10,34,0.01,3,Fog-Snow,302